createdAt,value
2023-02-25T00:02:04.038Z,100201.56
2023-02-25T00:04:33.440Z,100196.96
2023-02-25T00:07:04.224Z,100198.82
2023-02-25T00:09:35.022Z,100197.05
2023-02-25T00:12:05.796Z,100198.01
2023-02-25T00:14:36.607Z,100196.32
2023-02-25T00:17:07.514Z,100198.66
2023-02-25T00:19:38.199Z,100196.73
2023-02-25T00:22:08.954Z,100201.71
2023-02-25T00:24:39.744Z,100201.40
2023-02-25T00:27:10.534Z,100197.53
2023-02-25T00:29:41.337Z,100203.78
2023-02-25T00:32:12.287Z,100210.20
2023-02-25T00:34:43.037Z,100202.77
2023-02-25T00:37:13.764Z,100210.25
2023-02-25T00:39:44.294Z,100215.02
2023-02-25T00:42:14.657Z,100220.00
2023-02-25T00:44:45.524Z,100224.04
2023-02-25T00:47:16.262Z,100224.96
2023-02-25T00:49:47.064Z,100227.68
2023-02-25T00:52:17.932Z,100237.32
2023-02-25T00:54:48.643Z,100240.16
2023-02-25T00:57:19.198Z,100235.98
2023-02-25T00:59:49.941Z,100243.18
2023-02-25T01:02:20.830Z,100253.55
2023-02-25T01:04:51.529Z,100258.51
2023-02-25T01:07:22.440Z,100260.49
2023-02-25T01:09:53.121Z,100262.70
2023-02-25T01:12:24.017Z,100262.99
2023-02-25T01:14:54.721Z,100270.75
2023-02-25T01:17:25.485Z,100264.91
2023-02-25T01:19:56.356Z,100274.18
2023-02-25T01:22:27.070Z,100270.19
2023-02-25T01:24:57.879Z,100264.31
2023-02-25T01:27:28.716Z,100260.16
2023-02-25T01:29:59.476Z,100266.00
2023-02-25T01:32:30.136Z,100270.72
2023-02-25T01:35:00.749Z,100276.20
2023-02-25T01:37:31.577Z,100274.44
2023-02-25T01:40:02.341Z,100279.75
2023-02-25T01:42:33.163Z,100277.24
2023-02-25T01:45:03.567Z,100274.43
2023-02-25T01:47:34.357Z,100280.91
2023-02-25T01:50:05.183Z,100274.62
2023-02-25T01:52:35.954Z,100275.23
2023-02-25T01:55:06.813Z,100273.32
2023-02-25T01:57:37.555Z,100271.36
2023-02-25T02:00:08.350Z,100270.34
2023-02-25T02:02:39.204Z,100268.88
2023-02-25T02:05:09.947Z,100267.68
2023-02-25T02:07:40.794Z,100268.97
2023-02-25T02:10:11.536Z,100271.16
2023-02-25T02:12:42.343Z,100269.99
2023-02-25T02:15:13.186Z,100273.03
2023-02-25T02:17:43.917Z,100267.70
2023-02-25T02:20:14.775Z,100265.89
2023-02-25T02:22:45.495Z,100265.19
2023-02-25T02:25:16.368Z,100268.01
2023-02-25T02:27:47.080Z,100265.79
2023-02-25T02:30:17.901Z,100266.43
2023-02-25T02:32:48.817Z,100261.24
2023-02-25T02:35:19.472Z,100258.88
2023-02-25T02:37:50.286Z,100258.78
2023-02-25T02:40:21.143Z,100258.30
2023-02-25T02:42:51.810Z,100264.86
2023-02-25T02:45:22.864Z,100270.82
2023-02-25T02:47:53.361Z,100268.98
2023-02-25T02:50:24.244Z,100281.73
2023-02-25T02:52:55.007Z,100286.38
2023-02-25T02:55:25.857Z,100287.22
2023-02-25T02:57:56.536Z,100289.69
2023-02-25T03:00:27.410Z,100284.04
2023-02-25T03:02:58.145Z,100277.06
2023-02-25T03:05:28.962Z,100277.53
2023-02-25T03:07:59.510Z,100277.93
2023-02-25T03:10:30.355Z,100278.63
2023-02-25T03:13:01.067Z,100285.49
2023-02-25T03:15:31.878Z,100285.88
2023-02-25T03:18:02.754Z,100287.11
2023-02-25T03:20:33.468Z,100290.51
2023-02-25T03:23:04.260Z,100293.52
2023-02-25T03:25:35.068Z,100298.80
2023-02-25T03:28:05.837Z,100295.11
2023-02-25T03:30:36.704Z,100302.12
2023-02-25T03:33:07.473Z,100307.00
2023-02-25T03:35:38.210Z,100306.23
2023-02-25T03:38:09.061Z,100307.39
2023-02-25T03:40:39.781Z,100310.71
2023-02-25T03:43:10.658Z,100313.22
2023-02-25T03:45:41.424Z,100321.70
2023-02-25T03:48:12.163Z,100320.00
2023-02-25T03:50:42.974Z,100316.63
2023-02-25T03:53:13.761Z,100312.19
2023-02-25T03:55:44.571Z,100317.04
2023-02-25T03:58:15.360Z,100321.52
2023-02-25T04:00:46.199Z,100325.73
2023-02-25T04:03:16.981Z,100323.70
2023-02-25T04:05:47.806Z,100319.93
2023-02-25T04:08:18.598Z,100325.81
2023-02-25T04:10:49.510Z,100335.68
2023-02-25T04:13:20.220Z,100337.08
2023-02-25T04:15:51.098Z,100343.59
2023-02-25T04:18:21.839Z,100347.42
2023-02-25T04:20:52.386Z,100347.64
2023-02-25T04:23:23.208Z,100347.59
2023-02-25T04:25:54.120Z,100346.07
2023-02-25T04:28:24.834Z,100345.52
2023-02-25T04:30:55.800Z,100352.58
2023-02-25T04:33:26.462Z,100354.22
2023-02-25T04:35:57.303Z,100360.77
2023-02-25T04:38:28.101Z,100361.45
2023-02-25T04:40:59.086Z,100361.09
2023-02-25T04:43:29.725Z,100362.60
2023-02-25T04:46:00.671Z,100364.69
2023-02-25T04:48:31.451Z,100364.44
2023-02-25T04:51:02.190Z,100364.14
2023-02-25T04:53:33.021Z,100368.92
2023-02-25T04:56:03.880Z,100368.00
2023-02-25T04:58:34.626Z,100370.93
2023-02-25T05:01:05.037Z,100373.03
2023-02-25T05:03:35.839Z,100368.42
2023-02-25T05:06:06.656Z,100373.71
2023-02-25T05:08:37.437Z,100373.23
2023-02-25T05:11:08.262Z,100379.76
2023-02-25T05:13:39.038Z,100381.37
2023-02-25T05:16:09.983Z,100385.21
2023-02-25T05:18:40.179Z,100390.33
2023-02-25T05:21:10.930Z,100386.10
2023-02-25T05:23:41.720Z,100390.31
2023-02-25T05:26:12.567Z,100387.64
2023-02-25T05:28:43.341Z,100388.34
2023-02-25T05:31:14.401Z,100388.68
2023-02-25T05:33:44.967Z,100396.11
2023-02-25T05:36:15.816Z,100393.19
2023-02-25T05:38:46.597Z,100392.88
2023-02-25T05:41:17.432Z,100396.24
2023-02-25T05:43:48.250Z,100398.56
2023-02-25T05:46:19.139Z,100408.37
2023-02-25T05:48:49.574Z,100409.37
2023-02-25T05:51:20.439Z,100413.95
2023-02-25T05:53:51.246Z,100419.11
2023-02-25T05:56:22.534Z,100407.58
2023-02-25T05:58:52.911Z,100411.34
2023-02-25T06:01:23.858Z,100407.32
2023-02-25T06:03:54.589Z,100406.88
2023-02-25T06:06:25.810Z,100412.00
2023-02-25T06:08:56.272Z,100418.31
2023-02-25T06:11:27.118Z,100429.08
2023-02-25T06:13:57.934Z,100435.68
2023-02-25T06:16:28.775Z,100448.39
2023-02-25T06:18:59.295Z,100453.42
2023-02-25T06:21:30.146Z,100455.99
2023-02-25T06:24:00.943Z,100457.20
2023-02-25T06:26:30.951Z,100459.96
2023-02-25T06:29:01.785Z,100462.92
2023-02-25T06:31:32.687Z,100465.28
2023-02-25T06:34:03.461Z,100468.75
2023-02-25T06:36:34.321Z,100467.47
2023-02-25T06:39:05.143Z,100470.78
2023-02-25T06:41:36.117Z,100478.54
2023-02-25T06:44:06.798Z,100490.98
2023-02-25T06:46:37.633Z,100497.02
2023-02-25T06:49:08.440Z,100495.39
2023-02-25T06:51:39.278Z,100502.05
2023-02-25T06:54:10.081Z,100499.40
2023-02-25T06:56:40.920Z,100501.09
2023-02-25T06:59:11.743Z,100505.52
2023-02-25T07:01:42.581Z,100505.46
2023-02-25T07:04:13.434Z,100507.03
2023-02-25T07:06:44.245Z,100511.89
2023-02-25T07:09:15.062Z,100520.42
2023-02-25T07:11:45.968Z,100521.86
2023-02-25T07:14:16.814Z,100520.30
2023-02-25T07:16:47.552Z,100519.17
2023-02-25T07:19:18.402Z,100524.71
2023-02-25T07:21:49.201Z,100529.25
2023-02-25T07:24:20.036Z,100531.63
2023-02-25T07:26:50.880Z,100535.80
2023-02-25T07:29:21.678Z,100536.75
2023-02-25T07:31:52.772Z,100539.82
2023-02-25T07:34:23.338Z,100545.31
2023-02-25T07:36:54.191Z,100539.77
2023-02-25T07:39:25.074Z,100545.00
2023-02-25T07:41:55.807Z,100552.45
2023-02-25T07:44:26.600Z,100565.42
2023-02-25T07:46:57.431Z,100569.66
2023-02-25T07:49:28.256Z,100565.34
2023-02-25T07:51:59.076Z,100579.89
2023-02-25T07:54:29.996Z,100575.72
2023-02-25T07:57:00.742Z,100580.42
2023-02-25T07:59:31.576Z,100581.79
2023-02-25T08:02:02.157Z,100585.19
2023-02-25T08:04:32.728Z,100585.42
2023-02-25T08:07:03.561Z,100587.43
2023-02-25T08:09:34.491Z,100590.87
2023-02-25T08:12:05.304Z,100601.09
2023-02-25T08:14:36.050Z,100604.81
2023-02-25T08:17:06.951Z,100602.19
2023-02-25T08:19:37.716Z,100602.88
2023-02-25T08:22:08.741Z,100616.75
2023-02-25T08:24:39.194Z,100614.34
2023-02-25T08:27:09.913Z,100625.16
2023-02-25T08:29:40.729Z,100631.04
2023-02-25T08:32:11.722Z,100625.94
2023-02-25T08:34:42.385Z,100627.99
2023-02-25T08:37:13.224Z,100630.67
2023-02-25T08:39:44.110Z,100633.16
2023-02-25T08:42:14.877Z,100637.54
2023-02-25T08:44:45.697Z,100638.32
2023-02-25T08:47:16.526Z,100645.65
2023-02-25T08:49:47.339Z,100655.67
2023-02-25T08:52:18.170Z,100659.37
2023-02-25T08:54:49.002Z,100662.84
2023-02-25T08:57:19.830Z,100671.34
2023-02-25T08:59:50.657Z,100675.76
2023-02-25T09:02:21.500Z,100683.53
2023-02-25T09:04:52.404Z,100686.67
2023-02-25T09:07:23.173Z,100692.44
2023-02-25T09:09:54.019Z,100694.63
2023-02-25T09:12:24.975Z,100701.12
2023-02-25T09:14:55.822Z,100704.64
2023-02-25T09:17:26.541Z,100723.37
2023-02-25T09:19:57.384Z,100723.69
2023-02-25T09:22:28.241Z,100728.73
2023-02-25T09:24:59.076Z,100735.47
2023-02-25T09:27:29.573Z,100740.65
2023-02-25T09:29:59.574Z,100745.00
2023-02-25T09:32:29.717Z,100748.06
2023-02-25T09:35:01.468Z,100757.84
2023-02-25T09:37:31.285Z,100753.44
2023-02-25T09:40:02.246Z,100760.22
2023-02-25T09:42:33.086Z,100752.10
2023-02-25T09:45:03.911Z,100751.54
2023-02-25T09:47:34.701Z,100753.29
2023-02-25T09:50:05.520Z,100763.96
2023-02-25T09:52:36.371Z,100766.34
2023-02-25T09:55:22.686Z,100779.50
2023-02-25T09:57:38.064Z,100781.70
2023-02-25T10:00:08.915Z,100792.42
2023-02-25T10:02:40.040Z,100788.17
2023-02-25T10:05:10.884Z,100790.23
2023-02-25T10:07:42.660Z,100783.99
2023-02-25T10:10:12.303Z,100794.89
2023-02-25T10:12:43.101Z,100794.25
2023-02-25T10:15:13.925Z,100798.70
2023-02-25T10:17:44.759Z,100809.64
2023-02-25T10:20:15.700Z,100812.67
2023-02-25T10:22:46.461Z,100803.10
2023-02-25T10:25:16.997Z,100809.02
2023-02-25T10:27:47.851Z,100811.55
2023-02-25T10:30:18.746Z,100811.33
2023-02-25T10:32:49.593Z,100817.75
2023-02-25T10:35:20.366Z,100812.96
2023-02-25T10:37:57.566Z,100817.84
2023-02-25T10:40:22.108Z,100814.90
2023-02-25T10:42:52.564Z,100819.57
2023-02-25T10:45:23.383Z,100826.10
2023-02-25T10:47:54.207Z,100822.31
2023-02-25T10:50:38.942Z,100827.91
2023-02-25T10:52:55.858Z,100828.59
2023-02-25T10:55:26.670Z,100828.98
2023-02-25T10:57:57.493Z,100842.44
2023-02-25T11:00:28.298Z,100827.96
2023-02-25T11:02:59.137Z,100839.02
2023-02-25T11:05:29.906Z,100841.39
2023-02-25T11:08:00.723Z,100853.17
2023-02-25T11:10:31.542Z,100856.18
2023-02-25T11:13:07.567Z,100856.25
2023-02-25T11:18:09.855Z,100867.04
2023-02-25T11:20:34.702Z,100870.27
2023-02-25T11:23:05.474Z,100873.77
2023-02-25T11:25:36.480Z,100864.29
2023-02-25T11:28:07.062Z,100865.14
2023-02-25T11:30:38.105Z,100867.20
2023-02-25T11:33:08.950Z,100869.23
2023-02-25T11:35:39.440Z,100889.08
2023-02-25T11:38:10.261Z,100884.23
2023-02-25T11:40:41.062Z,100886.62
2023-02-25T11:43:11.897Z,100901.91
2023-02-25T11:45:42.689Z,100899.61
2023-02-25T11:48:12.889Z,100899.92
2023-02-25T11:50:43.209Z,100903.70
2023-02-25T11:53:13.727Z,100902.09
2023-02-25T11:55:44.503Z,100898.26
2023-02-25T11:58:15.331Z,100907.79
2023-02-25T12:00:45.854Z,100901.94
2023-02-25T12:03:16.688Z,100908.47
2023-02-25T12:05:47.580Z,100913.85
2023-02-25T12:08:18.325Z,100908.66
2023-02-25T12:10:49.109Z,100915.52
2023-02-25T12:13:19.970Z,100907.98
2023-02-25T12:15:50.732Z,100905.13
2023-02-25T12:18:21.522Z,100905.72
2023-02-25T12:20:52.320Z,100911.54
2023-02-25T12:23:22.844Z,100903.62
2023-02-25T12:25:53.713Z,100916.03
2023-02-25T12:28:24.425Z,100921.04
2023-02-25T12:30:55.303Z,100921.37
2023-02-25T12:33:25.993Z,100917.46
2023-02-25T12:35:56.777Z,100923.35
2023-02-25T12:38:27.601Z,100921.65
2023-02-25T12:40:58.376Z,100922.65
2023-02-25T12:43:29.176Z,100926.12
2023-02-25T12:46:00.048Z,100932.37
2023-02-25T12:48:30.766Z,100941.41
2023-02-25T12:51:01.561Z,100937.59
2023-02-25T12:53:32.380Z,100929.32
2023-02-25T12:56:03.158Z,100936.99
2023-02-25T12:58:33.969Z,100936.01
2023-02-25T13:01:04.875Z,100947.17
2023-02-25T13:03:35.610Z,100950.10
2023-02-25T13:06:06.421Z,100955.02
2023-02-25T13:08:37.207Z,100954.48
2023-02-25T13:11:07.617Z,100960.11
2023-02-25T13:13:38.433Z,100959.98
2023-02-25T13:16:09.227Z,100955.55
2023-02-25T13:18:39.993Z,100955.57
2023-02-25T13:21:11.978Z,100958.23
2023-02-25T13:23:41.505Z,100963.85
2023-02-25T13:26:12.247Z,100961.88
2023-02-25T13:28:43.033Z,100964.63
2023-02-25T13:31:13.877Z,100961.43
2023-02-25T13:33:44.579Z,100967.41
2023-02-25T13:36:15.354Z,100969.72
2023-02-25T13:38:46.199Z,100965.62
2023-02-25T13:41:16.964Z,100970.48
2023-02-25T13:43:47.758Z,100964.40
2023-02-25T13:46:18.472Z,100965.36
2023-02-25T13:48:49.194Z,100963.95
2023-02-25T13:51:19.933Z,100970.68
2023-02-25T13:53:50.727Z,100970.38
2023-02-25T13:56:21.453Z,100972.91
2023-02-25T13:58:54.622Z,100984.55
2023-02-25T14:01:23.498Z,100985.33
2023-02-25T14:03:53.765Z,100982.39
2023-02-25T14:06:24.616Z,100982.38
2023-02-25T14:08:55.414Z,100996.36
2023-02-25T14:11:26.245Z,100999.31
2023-02-25T14:13:56.823Z,101004.22
2023-02-25T14:16:27.567Z,101017.13
2023-02-25T14:18:58.335Z,101010.11
2023-02-25T14:21:29.083Z,101014.21
2023-02-25T14:23:59.852Z,101014.43
2023-02-25T14:26:30.612Z,101021.00
2023-02-25T14:29:01.486Z,101028.53
2023-02-25T14:31:32.316Z,101030.36
2023-02-25T14:34:02.885Z,101034.07
2023-02-25T14:36:33.637Z,101038.39
2023-02-25T14:39:04.524Z,101039.16
2023-02-25T14:41:35.176Z,101041.38
2023-02-25T14:44:05.945Z,101046.06
2023-02-25T14:46:36.709Z,101057.41
2023-02-25T14:49:07.479Z,101061.64
2023-02-25T14:51:38.023Z,101067.97
2023-02-25T14:54:08.751Z,101072.88
2023-02-25T14:56:39.550Z,101077.92
2023-02-25T14:59:10.392Z,101082.58
2023-02-25T15:01:47.372Z,101084.81
2023-02-25T15:04:11.849Z,101081.97
2023-02-25T15:06:42.804Z,101091.29
2023-02-25T15:09:13.410Z,101089.33
2023-02-25T15:11:44.112Z,101100.41
2023-02-25T15:14:14.900Z,101095.84
2023-02-25T15:16:45.662Z,101104.58
2023-02-25T15:19:16.435Z,101108.26
2023-02-25T15:21:47.213Z,101108.86
2023-02-25T15:24:18.003Z,101118.41
2023-02-25T15:26:48.809Z,101120.81
2023-02-25T15:29:18.961Z,101122.06
2023-02-25T15:31:49.818Z,101130.88
2023-02-25T15:34:20.536Z,101130.36
2023-02-25T15:36:51.422Z,101138.75
2023-02-25T15:39:22.141Z,101132.78
2023-02-25T15:41:52.897Z,101137.72
2023-02-25T15:44:23.440Z,101133.92
2023-02-25T15:46:54.356Z,101134.95
2023-02-25T15:49:25.116Z,101141.68
2023-02-25T15:51:55.794Z,101149.70
2023-02-25T15:54:26.675Z,101147.35
2023-02-25T15:56:57.356Z,101149.24
2023-02-25T15:59:28.231Z,101149.67
2023-02-25T16:01:58.983Z,101157.24
2023-02-25T16:04:29.488Z,101159.92
2023-02-25T16:07:00.016Z,101163.59
2023-02-25T16:09:30.710Z,101167.45
2023-02-25T16:12:01.519Z,101169.88
2023-02-25T16:14:32.318Z,101171.19
2023-02-25T16:17:03.133Z,101173.89
2023-02-25T16:19:33.924Z,101180.39
2023-02-25T16:22:04.746Z,101182.16
2023-02-25T16:24:35.532Z,101187.18
2023-02-25T16:27:06.380Z,101187.87
2023-02-25T16:29:37.191Z,101196.20
2023-02-25T16:32:08.092Z,101195.26
2023-02-25T16:34:38.798Z,101202.89
2023-02-25T16:37:09.796Z,101206.03
2023-02-25T16:39:40.441Z,101201.29
2023-02-25T16:42:10.992Z,101203.16
2023-02-25T16:44:41.804Z,101207.50
2023-02-25T16:47:12.624Z,101206.44
2023-02-25T16:49:43.435Z,101209.65
2023-02-25T16:52:14.257Z,101214.43
2023-02-25T16:54:45.097Z,101217.09
2023-02-25T16:57:15.872Z,101220.35
2023-02-25T16:59:46.705Z,101222.65
2023-02-25T17:02:17.545Z,101224.51
2023-02-25T17:04:48.332Z,101228.50
2023-02-25T17:07:19.168Z,101233.50
2023-02-25T17:09:50.018Z,101235.98
2023-02-25T17:12:20.798Z,101238.36
2023-02-25T17:14:51.549Z,101243.56
2023-02-25T17:17:22.121Z,101246.25
2023-02-25T17:19:52.865Z,101246.01
2023-02-25T17:22:23.805Z,101246.09
2023-02-25T17:24:54.454Z,101251.79
2023-02-25T17:27:25.259Z,101255.83
2023-02-25T17:29:56.073Z,101259.42
2023-02-25T17:32:27.000Z,101264.97
2023-02-25T17:34:57.665Z,101264.10
2023-02-25T17:37:28.457Z,101267.43
2023-02-25T17:39:59.257Z,101269.49
2023-02-25T17:42:30.101Z,101270.91
2023-02-25T17:45:00.937Z,101276.76
2023-02-25T17:47:31.803Z,101279.11
2023-02-25T17:50:02.607Z,101285.66
2023-02-25T17:52:33.483Z,101288.20
2023-02-25T17:55:04.322Z,101290.50
2023-02-25T17:57:35.198Z,101294.25
2023-02-25T18:00:06.057Z,101297.87
2023-02-25T18:02:36.997Z,101299.72
2023-02-25T18:05:07.789Z,101302.15
2023-02-25T18:07:38.788Z,101306.00
2023-02-25T18:10:09.534Z,101309.23
2023-02-25T18:12:40.391Z,101305.14
2023-02-25T18:15:10.865Z,101306.06
2023-02-25T18:17:40.928Z,101308.97
2023-02-25T18:20:11.625Z,101317.45
2023-02-25T18:22:41.662Z,101317.15
2023-02-25T18:25:11.679Z,101313.95
2023-02-25T18:27:42.550Z,101312.25
2023-02-25T18:30:13.414Z,101312.71
2023-02-25T18:32:44.304Z,101316.51
2023-02-25T18:35:15.197Z,101319.42
2023-02-25T18:37:46.066Z,101331.49
2023-02-25T18:40:16.933Z,101347.37
2023-02-25T18:42:47.804Z,101349.16
2023-02-25T18:45:18.675Z,101372.79
2023-02-25T18:47:49.616Z,101362.52
2023-02-25T18:50:20.486Z,101339.18
2023-02-25T18:52:51.443Z,101334.70
2023-02-25T18:55:22.285Z,101332.24
2023-02-25T18:57:53.185Z,101336.72
2023-02-25T19:00:24.077Z,101340.02
2023-02-25T19:02:55.131Z,101339.69
2023-02-25T19:05:25.880Z,101347.26
2023-02-25T19:07:56.569Z,101352.47
2023-02-25T19:10:26.512Z,101355.25
2023-02-25T19:12:56.594Z,101358.38
2023-02-25T19:15:26.901Z,101367.08
2023-02-25T19:17:57.046Z,101364.94
2023-02-25T19:20:27.557Z,101368.12
2023-02-25T19:22:58.181Z,101371.91
2023-02-25T19:25:28.295Z,101368.94
2023-02-25T19:27:58.957Z,101369.61
2023-02-25T19:30:29.494Z,101371.65
2023-02-25T19:32:59.812Z,101373.67
2023-02-25T19:35:29.938Z,101375.98
2023-02-25T19:38:00.581Z,101379.15
2023-02-25T19:40:31.398Z,101376.71
2023-02-25T19:43:01.670Z,101380.96
2023-02-25T19:45:32.172Z,101379.44
2023-02-25T19:48:02.985Z,101386.83
2023-02-25T19:50:33.096Z,101390.83
2023-02-25T19:53:03.052Z,101400.50
2023-02-25T19:55:33.925Z,101400.60
2023-02-25T19:58:04.877Z,101407.10
2023-02-25T20:00:35.762Z,101409.65
2023-02-25T20:03:06.676Z,101411.35
2023-02-25T20:05:37.492Z,101417.95
2023-02-25T20:08:08.438Z,101414.09
2023-02-25T20:10:39.377Z,101414.71
2023-02-25T20:13:10.240Z,101410.54
2023-02-25T20:15:41.135Z,101417.65
2023-02-25T20:18:12.106Z,101418.59
2023-02-25T20:20:42.961Z,101417.79
2023-02-25T20:23:13.877Z,101423.36
2023-02-25T20:25:44.763Z,101423.46
2023-02-25T20:28:15.690Z,101430.51
2023-02-25T20:30:46.606Z,101434.54
2023-02-25T20:33:17.501Z,101434.14
2023-02-25T20:35:48.541Z,101432.90
2023-02-25T20:38:19.388Z,101431.60
2023-02-25T20:40:50.221Z,101434.21
2023-02-25T20:43:21.113Z,101441.79
2023-02-25T20:45:52.106Z,101447.91
2023-02-25T20:48:22.912Z,101451.31
2023-02-25T20:50:53.876Z,101455.38
2023-02-25T20:53:24.725Z,101456.04
2023-02-25T20:55:55.611Z,101457.00
2023-02-25T20:58:26.516Z,101452.85
2023-02-25T21:00:57.465Z,101461.81
2023-02-25T21:03:28.324Z,101466.08
2023-02-25T21:05:59.216Z,101462.91
2023-02-25T21:08:30.149Z,101464.97
2023-02-25T21:11:01.031Z,101457.30
2023-02-25T21:13:31.941Z,101459.62
2023-02-25T21:16:02.889Z,101462.53
2023-02-25T21:18:33.735Z,101471.77
2023-02-25T21:21:04.629Z,101470.06
2023-02-25T21:23:35.547Z,101472.20
2023-02-25T21:26:06.526Z,101475.06
2023-02-25T21:28:37.358Z,101477.16
2023-02-25T21:31:08.314Z,101481.06
2023-02-25T21:33:39.152Z,101480.37
2023-02-25T21:36:10.056Z,101479.56
2023-02-25T21:38:40.951Z,101480.78
2023-02-25T21:41:11.962Z,101479.04
2023-02-25T21:43:42.724Z,101480.33
2023-02-25T21:46:13.701Z,101485.31
2023-02-25T21:48:44.525Z,101486.47
2023-02-25T21:51:15.417Z,101490.37
2023-02-25T21:53:46.449Z,101495.48
2023-02-25T21:56:17.199Z,101493.72
2023-02-25T21:58:48.205Z,101494.66
2023-02-25T22:01:19.048Z,101495.10
2023-02-25T22:03:49.917Z,101498.27
2023-02-25T22:06:20.758Z,101492.81
2023-02-25T22:08:51.780Z,101493.38
2023-02-25T22:11:22.540Z,101495.33
2023-02-25T22:13:53.443Z,101503.49
2023-02-25T22:16:24.675Z,101518.33
2023-02-25T22:18:55.240Z,101521.84
2023-02-25T22:21:26.125Z,101526.97
2023-02-25T22:23:57.111Z,101528.34
2023-02-25T22:26:28.187Z,101533.26
2023-02-25T22:28:58.878Z,101544.30
2023-02-25T22:31:29.923Z,101545.51
2023-02-25T22:34:00.666Z,101549.33
2023-02-25T22:36:31.559Z,101550.81
2023-02-25T22:39:01.611Z,101549.02
2023-02-25T22:41:31.622Z,101546.47
2023-02-25T22:44:01.702Z,101543.72
2023-02-25T22:46:31.731Z,101544.33
2023-02-25T22:49:01.793Z,101550.36
2023-02-25T22:51:31.862Z,101550.93
2023-02-25T22:54:02.536Z,101552.06
2023-02-25T22:56:32.485Z,101552.94
2023-02-25T22:59:02.550Z,101552.90
2023-02-25T23:01:33.476Z,101555.34
2023-02-25T23:04:04.366Z,101556.06
2023-02-25T23:06:43.578Z,101557.80
2023-02-25T23:09:05.279Z,101556.31
2023-02-25T23:11:35.340Z,101561.63
2023-02-25T23:14:05.422Z,101565.70
2023-02-25T23:16:36.406Z,101571.14
2023-02-25T23:19:07.273Z,101577.70
2023-02-25T23:21:37.223Z,101585.35
2023-02-25T23:24:07.324Z,101595.03
2023-02-25T23:26:37.380Z,101595.34
2023-02-25T23:29:08.307Z,101602.71
2023-02-25T23:31:39.396Z,101609.58
2023-02-25T23:34:10.112Z,101608.84
2023-02-25T23:36:40.991Z,101611.33
2023-02-25T23:39:11.950Z,101615.97
2023-02-25T23:41:42.913Z,101621.37
2023-02-25T23:44:12.824Z,101625.43
2023-02-25T23:46:42.922Z,101629.99
2023-02-25T23:49:13.014Z,101636.79
2023-02-25T23:51:43.014Z,101635.54
2023-02-25T23:54:13.134Z,101641.88
2023-02-25T23:56:43.247Z,101646.02
2023-02-25T23:59:13.270Z,101646.05
